Time;durP1;ratioP1;P1;durP2;ratioP2;P2;SDS_P1;SDS_P2;PMS_P1;PMS_P2;Temp;Humidity;BMP_temperature;BMP_pressure;BME280_temperature;BME280_humidity;BME280_pressure;Samples;Min_cycle;Max_cycle;Signal;HPM_P1;HPM_P2
2022/10/31 00:01:56;;;;;;;0.68;0.40;;;;;;;0.37;60.57;100368.84;10602102;28;20501;-74
2022/10/31 00:06:59;;;;;;;0.10;0.10;;;;;;;0.32;60.57;100377.56;10611261;28;20513;-74
2022/10/31 00:12:01;;;;;;;0.20;0.20;;;;;;;0.31;60.65;100389.41;10602935;28;20044;-74
2022/10/31 00:17:35;;;;;;;0.35;0.25;;;;;;;0.36;61.28;100399.56;10606717;28;20121;-74
2022/10/31 00:22:41;;;;;;;0.20;0.20;;;;;;;0.28;61.55;100406.03;10594919;28;20176;-74
2022/10/31 00:27:47;;;;;;;0.88;0.30;;;;;;;0.25;61.76;100410.00;10581011;28;20040;-74
2022/10/31 00:32:53;;;;;;;0.30;0.20;;;;;;;0.23;62.11;100419.38;10588560;28;20046;-74
2022/10/31 00:37:55;;;;;;;0.10;0.10;;;;;;;0.25;62.49;100426.22;10592054;28;20046;-74
2022/10/31 00:43:01;;;;;;;0.47;0.20;;;;;;;0.20;62.12;100442.22;10604292;28;20036;-74
2022/10/31 00:48:08;;;;;;;1.42;0.22;;;;;;;0.17;62.67;100445.34;10605870;28;20050;-74
2022/10/31 00:53:14;;;;;;;0.00;0.00;;;;;;;0.24;62.78;100442.63;10585936;28;20036;-74
2022/10/31 00:58:20;;;;;;;0.22;0.20;;;;;;;0.30;63.34;100447.97;10595514;28;20554;-74
2022/10/31 01:03:25;;;;;;;0.25;0.13;;;;;;;0.19;63.17;100456.78;10606680;28;20058;-74
2022/10/31 01:08:27;;;;;;;0.65;0.35;;;;;;;0.17;63.46;100464.22;10585612;28;20113;-73
2022/10/31 01:13:34;;;;;;;0.50;0.40;;;;;;;0.20;63.61;100474.63;10598620;28;20047;-74
2022/10/31 01:18:37;;;;;;;0.00;0.00;;;;;;;0.17;63.46;100488.50;10607798;28;20486;-73
2022/10/31 01:23:39;;;;;;;0.82;0.17;;;;;;;0.14;63.84;100494.34;10616940;28;20047;-73
2022/10/31 01:28:53;;;;;;;0.30;0.20;;;;;;;0.11;63.83;100500.19;10618805;27;20031;-73
2022/10/31 01:33:56;;;;;;;0.40;0.32;;;;;;;0.07;64.22;100508.94;10605091;27;20031;-73
2022/10/31 01:39:01;;;;;;;0.20;0.20;;;;;;;0.09;64.63;100515.75;10620578;27;20114;-73
2022/10/31 01:44:13;;;;;;;0.90;0.20;;;;;;;0.11;64.55;100515.53;10621692;27;20044;-73
2022/10/31 01:49:19;;;;;;;0.73;0.20;;;;;;;0.08;64.59;100532.16;10607175;28;20051;-74
2022/10/31 01:54:24;;;;;;;0.20;0.17;;;;;;;0.18;64.95;100541.47;10584694;28;20047;-74
2022/10/31 01:59:31;;;;;;;0.10;0.10;;;;;;;0.19;65.01;100551.22;10585761;27;20505;-74
2022/10/31 02:04:33;;;;;;;2.17;0.30;;;;;;;0.13;65.21;100554.75;10615520;28;20509;-74
2022/10/31 02:09:36;;;;;;;0.65;0.20;;;;;;;0.15;65.20;100566.16;10612760;28;20039;-74
2022/10/31 02:14:42;;;;;;;0.43;0.32;;;;;;;0.19;65.45;100570.09;10581543;28;20036;-74
2022/10/31 02:20:21;;;;;;;0.63;0.40;;;;;;;0.19;65.14;100580.91;10590906;28;20050;-74
2022/10/31 02:25:49;;;;;;;0.30;0.20;;;;;;;0.27;65.53;100582.50;10571407;28;20669;-75
2022/10/31 02:31:34;;;;;;;0.50;0.22;;;;;;;0.08;65.22;100589.66;10612886;28;20529;-74
2022/10/31 02:36:46;;;;;;;0.55;0.52;;;;;;;0.09;66.57;100599.41;10609615;28;20398;-73
2022/10/31 02:41:48;;;;;;;1.67;0.65;;;;;;;0.05;65.69;100617.06;10577024;28;20042;-74
2022/10/31 02:47:06;;;;;;;0.77;0.50;;;;;;;0.01;66.52;100623.09;10612334;27;20050;-73
2022/10/31 02:52:25;;;;;;;0.68;0.32;;;;;;;0.05;66.99;100627.84;10609577;27;20044;-73
2022/10/31 02:57:34;;;;;;;2.08;0.45;;;;;;;0.06;66.67;100637.59;10609948;28;20410;-73
2022/10/31 03:02:58;;;;;;;0.90;0.50;;;;;;;0.03;66.88;100637.19;10585741;28;20039;-73
2022/10/31 03:08:06;;;;;;;0.88;0.30;;;;;;;0.09;66.39;100644.44;10582655;28;20044;-73
2022/10/31 03:13:21;;;;;;;0.60;0.60;;;;;;;-0.11;66.92;100661.50;10590785;28;20035;-72
2022/10/31 03:18:30;;;;;;;1.77;0.50;;;;;;;-0.15;66.93;100667.53;10593789;28;20054;-74
2022/10/31 03:23:34;;;;;;;1.40;0.50;;;;;;;-0.13;67.41;100677.06;10569760;28;20043;-73
2022/10/31 03:28:41;;;;;;;1.13;0.40;;;;;;;-0.09;67.21;100699.03;10611269;28;20051;-73
2022/10/31 03:33:44;;;;;;;0.73;0.40;;;;;;;-0.16;67.63;100709.84;10604887;28;20414;-75
2022/10/31 03:38:46;;;;;;;0.20;0.20;;;;;;;-0.20;67.89;100715.84;10580171;28;20040;-74
2022/10/31 03:43:56;;;;;;;0.20;0.20;;;;;;;-0.24;67.50;100720.84;10581265;28;20042;-74
2022/10/31 03:49:00;;;;;;;2.27;0.50;;;;;;;-0.26;67.50;100722.91;10588300;28;20066;-75
2022/10/31 03:54:23;;;;;;;0.40;0.35;;;;;;;-0.22;67.33;100720.63;10608248;27;20401;-74
2022/10/31 03:59:47;;;;;;;1.60;0.20;;;;;;;-0.20;67.31;100722.06;10594942;28;20052;-74
2022/10/31 04:04:50;;;;;;;0.10;0.10;;;;;;;-0.16;68.11;100715.25;10593384;28;20043;-74
2022/10/31 04:09:53;;;;;;;0.63;0.38;;;;;;;-0.08;67.19;100725.81;10587017;28;20047;-73
2022/10/31 04:14:57;;;;;;;0.60;0.30;;;;;;;-0.04;67.55;100728.91;10588326;28;20051;-73
2022/10/31 04:20:00;;;;;;;0.93;0.30;;;;;;;-0.05;67.15;100735.34;10602027;28;20047;-74
2022/10/31 04:25:04;;;;;;;1.80;0.45;;;;;;;-0.08;67.82;100731.19;10589820;28;20036;-75
2022/10/31 04:30:07;;;;;;;0.82;0.20;;;;;;;-0.10;67.10;100735.97;10600238;28;20032;-74
2022/10/31 04:35:12;;;;;;;0.75;0.22;;;;;;;-0.11;67.22;100749.69;10608538;28;20078;-75
2022/10/31 04:40:14;;;;;;;0.55;0.10;;;;;;;-0.16;67.57;100733.28;10606087;28;20051;-75
2022/10/31 04:45:39;;;;;;;1.17;0.50;;;;;;;-0.20;67.98;100743.66;10607084;28;20035;-75
2022/10/31 04:50:41;;;;;;;0.75;0.50;;;;;;;-0.13;68.07;100743.66;10595648;28;20040;-75
2022/10/31 04:55:44;;;;;;;0.20;0.20;;;;;;;-0.14;68.14;100747.41;10588253;28;20047;-76
2022/10/31 05:00:54;;;;;;;0.47;0.28;;;;;;;-0.16;67.80;100755.69;10605383;28;20548;-74
2022/10/31 05:05:57;;;;;;;1.90;0.40;;;;;;;-0.18;68.23;100762.31;10573163;28;20497;-74
2022/10/31 05:11:03;;;;;;;0.43;0.38;;;;;;;-0.27;68.44;100774.34;10566985;28;20039;-74
2022/10/31 05:16:05;;;;;;;1.80;0.40;;;;;;;-0.28;68.71;100794.28;10607658;28;20051;-73
2022/10/31 05:21:26;;;;;;;4.80;0.68;;;;;;;-0.43;69.28;100791.75;10587231;28;20035;-73
2022/10/31 05:26:33;;;;;;;0.55;0.45;;;;;;;-0.54;69.07;100806.66;10588679;28;20036;-77
2022/10/31 05:31:36;;;;;;;0.40;0.40;;;;;;;-0.49;69.66;100817.69;10601543;28;20039;-74
2022/10/31 05:36:41;;;;;;;0.60;0.30;;;;;;;-0.39;69.79;100818.09;10600650;28;20528;-74
2022/10/31 05:41:53;;;;;;;1.42;0.55;;;;;;;-0.23;69.42;100826.84;10617560;28;20497;-75
2022/10/31 05:46:58;;;;;;;0.82;0.30;;;;;;;0.16;68.63;100829.53;10614730;28;20501;-75
2022/10/31 05:52:13;;;;;;;0.85;0.50;;;;;;;0.60;67.80;100817.25;10616408;28;20409;-75
2022/10/31 05:57:24;;;;;;;1.17;0.50;;;;;;;1.37;66.95;100816.28;10614509;28;20044;-74
2022/10/31 06:02:26;;;;;;;0.30;0.30;;;;;;;1.90;64.06;100834.06;10615888;28;20044;-75
2022/10/31 06:07:57;;;;;;;0.50;0.30;;;;;;;1.86;62.92;100840.97;10614499;28;20048;-75
2022/10/31 06:12:59;;;;;;;1.17;0.55;;;;;;;2.21;62.89;100849.44;10585638;28;20043;-74
2022/10/31 06:18:23;;;;;;;1.13;0.55;;;;;;;2.23;61.46;100860.88;10581641;28;20063;-74
2022/10/31 06:23:27;;;;;;;0.80;0.50;;;;;;;1.54;63.41;100859.88;10614156;28;20043;-75
2022/10/31 06:28:48;;;;;;;1.48;0.88;;;;;;;1.30;63.87;100844.44;10613505;28;20410;-74
2022/10/31 06:34:05;;;;;;;1.88;0.70;;;;;;;1.20;64.02;100847.56;10594849;28;20036;-74
2022/10/31 06:39:08;;;;;;;1.77;0.40;;;;;;;1.18;64.09;100868.59;10572231;28;20036;-75
2022/10/31 06:44:10;;;;;;;2.13;0.50;;;;;;;0.98;64.93;100862.44;10612250;28;20051;-75
2022/10/31 06:49:35;;;;;;;1.13;0.40;;;;;;;1.47;64.85;100862.63;10603792;28;20044;-76
2022/10/31 06:54:44;;;;;;;2.05;0.50;;;;;;;1.91;63.62;100857.38;10612457;28;20543;-75
2022/10/31 06:59:46;;;;;;;2.00;0.52;;;;;;;2.47;61.58;100857.34;10611910;28;20047;-76
2022/10/31 07:04:54;;;;;;;2.08;0.90;;;;;;;2.23;61.95;100890.66;10612829;28;20042;-76
2022/10/31 07:09:58;;;;;;;1.08;0.40;;;;;;;2.54;62.11;100900.63;10611655;28;20043;-75
2022/10/31 07:15:18;;;;;;;1.73;0.68;;;;;;;3.16;60.84;100898.75;10611384;28;20061;-74
2022/10/31 07:20:21;;;;;;;1.33;1.02;;;;;;;3.62;59.26;100900.88;10611640;28;20056;-75
2022/10/31 07:25:23;;;;;;;1.50;0.82;;;;;;;3.93;58.46;100929.69;10610399;28;20052;-75
2022/10/31 07:30:54;;;;;;;4.00;0.70;;;;;;;4.06;57.79;100934.94;10604137;28;20054;-75
2022/10/31 07:35:57;;;;;;;2.75;0.70;;;;;;;4.37;57.35;100947.44;10569250;28;20040;-76
2022/10/31 07:41:05;;;;;;;2.22;0.60;;;;;;;4.62;56.23;100949.94;10580147;28;20044;-76
2022/10/31 07:46:12;;;;;;;;;;;;;;;4.52;56.49;100969.56;10601624;28;20505;-76
2022/10/31 07:51:34;;;;;;;1.75;0.50;;;;;;;4.58;56.94;100964.25;10612120;28;19919;-76
2022/10/31 07:56:59;;;;;;;2.70;0.80;;;;;;;4.94;55.95;100968.66;10591222;28;20043;-75
2022/10/31 08:02:01;;;;;;;2.05;0.60;;;;;;;4.98;56.25;100986.16;10612658;28;20044;-75
2022/10/31 08:07:06;;;;;;;2.33;0.80;;;;;;;5.03;55.06;100991.72;10611921;28;20046;-75
2022/10/31 08:12:11;;;;;;;1.33;0.90;;;;;;;5.43;55.67;101000.81;10569951;28;20410;-75
2022/10/31 08:17:13;;;;;;;0.90;0.77;;;;;;;5.54;54.05;101010.03;10597608;28;20042;-75
2022/10/31 08:22:23;;;;;;;1.80;0.90;;;;;;;5.33;54.48;101025.06;10593022;28;20058;-75
2022/10/31 08:27:25;;;;;;;1.70;0.70;;;;;;;4.72;55.62;101036.38;10598531;28;20457;-75
2022/10/31 08:32:29;;;;;;;2.58;1.10;;;;;;;4.23;57.17;101038.31;10588882;28;20043;-75
2022/10/31 08:37:56;;;;;;;2.15;0.73;;;;;;;3.94;57.62;101035.34;10608967;28;20035;-75
2022/10/31 08:43:19;;;;;;;3.47;0.80;;;;;;;3.55;58.16;101041.25;10607215;28;20389;-77
2022/10/31 08:48:23;;;;;;;3.30;0.80;;;;;;;3.22;59.97;101042.38;10591931;28;20052;-77
2022/10/31 08:53:25;;;;;;;5.28;1.45;;;;;;;3.02;60.66;101052.59;10596236;28;20043;-76
2022/10/31 08:58:41;;;;;;;1.27;0.80;;;;;;;2.93;61.09;101056.59;10637999;28;20051;-77
2022/10/31 09:03:44;;;;;;;4.43;1.27;;;;;;;2.83;61.56;101053.56;10610414;28;20036;-77
2022/10/31 09:08:47;;;;;;;0.80;0.60;;;;;;;2.78;62.05;101075.06;10615140;28;20058;-77
2022/10/31 09:13:52;;;;;;;1.55;0.70;;;;;;;2.77;61.19;101076.94;10619601;28;20486;-77
2022/10/31 09:19:13;;;;;;;1.77;1.00;;;;;;;2.71;61.79;101077.84;10605076;27;20523;-77
2022/10/31 09:24:20;;;;;;;2.58;1.05;;;;;;;2.76;61.75;101085.28;10605671;28;20054;-77
2022/10/31 09:29:23;;;;;;;0.82;0.60;;;;;;;2.67;61.89;101088.28;10599794;28;20039;-77
2022/10/31 09:34:31;;;;;;;1.27;0.70;;;;;;;2.54;62.10;101101.06;10599378;28;20039;-77
2022/10/31 09:39:41;;;;;;;1.95;0.82;;;;;;;2.54;62.67;101110.03;10617703;28;20047;-76
2022/10/31 09:44:55;;;;;;;0.90;0.60;;;;;;;2.46;62.99;101121.13;10615337;28;20051;-76
2022/10/31 09:50:19;;;;;;;4.25;1.38;;;;;;;2.52;62.64;101128.38;10572597;28;20082;-76
2022/10/31 09:55:39;;;;;;;3.35;0.50;;;;;;;2.59;62.79;101152.72;10572952;28;20047;-76
2022/10/31 10:00:42;;;;;;;1.42;0.80;;;;;;;2.65;62.34;101155.41;10593509;28;20032;-76
2022/10/31 10:05:56;;;;;;;1.85;1.02;;;;;;;2.63;62.85;101159.38;10588808;28;20498;-77
2022/10/31 10:11:10;;;;;;;1.02;0.60;;;;;;;2.50;63.18;101160.28;10572481;28;20036;-75
2022/10/31 10:16:15;;;;;;;2.28;0.98;;;;;;;2.63;62.86;101160.22;10582129;28;20048;-77
2022/10/31 10:22:00;;;;;;;2.40;0.90;;;;;;;2.57;62.78;101158.34;10596495;28;20060;-76
2022/10/31 10:27:14;;;;;;;0.90;0.68;;;;;;;2.73;62.51;101152.44;10630255;27;20047;-77
2022/10/31 10:32:23;;;;;;;2.08;0.98;;;;;;;2.68;62.21;101159.56;10606328;28;20031;-76
2022/10/31 10:37:36;;;;;;;2.75;1.25;;;;;;;2.67;63.36;101153.31;10571150;28;20094;-77
2022/10/31 10:48:26;;;;;;;1.27;0.77;;;;;;;2.85;62.04;101159.88;10589893;28;20044;-76
2022/10/31 10:53:48;;;;;;;1.42;1.00;;;;;;;2.73;61.54;101157.03;10603932;28;20043;-76
2022/10/31 10:58:51;;;;;;;3.08;0.90;;;;;;;2.75;62.38;101157.63;10612630;28;20485;-76
2022/10/31 11:03:53;;;;;;;2.13;0.82;;;;;;;2.70;62.46;101173.72;10612588;28;20062;-76
2022/10/31 11:08:55;;;;;;;3.88;0.90;;;;;;;2.73;62.22;101168.69;10598938;27;20445;-79
2022/10/31 11:14:03;;;;;;;2.15;0.88;;;;;;;2.77;61.81;101176.38;10580376;28;20039;-78
2022/10/31 11:19:26;;;;;;;2.40;1.00;;;;;;;2.67;61.81;101179.56;10569447;28;20039;-77
2022/10/31 11:24:29;;;;;;;3.25;1.02;;;;;;;2.70;61.65;101169.13;10609110;27;20036;-79
2022/10/31 11:29:31;;;;;;;1.00;0.88;;;;;;;2.73;61.52;101171.41;10600122;28;20056;-77
2022/10/31 11:34:43;;;;;;;1.92;0.90;;;;;;;2.85;61.41;101176.16;10612195;28;20073;-77
2022/10/31 11:39:53;;;;;;;1.67;1.10;;;;;;;2.86;61.86;101181.34;10611365;28;20048;-76
2022/10/31 11:44:55;;;;;;;5.13;0.82;;;;;;;2.93;62.01;101174.00;10604668;28;20039;-77
2022/10/31 11:50:02;;;;;;;3.70;1.38;;;;;;;2.97;61.48;101177.13;10602187;28;20052;-79
2022/10/31 11:55:10;;;;;;;3.50;1.20;;;;;;;2.91;61.91;101183.41;10588891;28;20040;-77
2022/10/31 12:00:38;;;;;;;2.25;1.27;;;;;;;2.87;61.32;101183.00;10575655;28;20044;-78
2022/10/31 12:05:40;;;;;;;;;;;;;;;2.91;61.17;101186.09;10584354;28;20051;-80
2022/10/31 12:11:10;;;;;;;3.15;1.13;;;;;;;2.93;61.84;101189.44;10609010;28;19924;-78
2022/10/31 12:16:22;;;;;;;3.38;1.38;;;;;;;2.90;61.56;101198.84;10603557;28;20039;-78
2022/10/31 12:21:37;;;;;;;1.65;0.98;;;;;;;2.95;61.04;101198.16;10596510;27;20043;-77
2022/10/31 12:26:54;;;;;;;5.13;1.20;;;;;;;2.97;61.86;101204.22;10602376;28;20420;-78
2022/10/31 12:32:14;;;;;;;1.57;0.90;;;;;;;2.96;61.34;101199.88;10591340;28;20043;-77
2022/10/31 12:37:39;;;;;;;2.70;1.15;;;;;;;2.93;61.00;101195.69;10581371;28;20058;-79
2022/10/31 12:43:26;;;;;;;2.80;0.73;;;;;;;2.91;60.86;101216.75;10594532;28;20040;-96
2022/10/31 12:48:40;;;;;;;2.10;1.02;;;;;;;2.85;61.00;101214.91;10572218;28;20074;-83
2022/10/31 12:53:50;;;;;;;2.67;1.10;;;;;;;2.96;61.12;101218.84;10599078;28;20047;-83
2022/10/31 12:59:07;;;;;;;2.67;1.30;;;;;;;3.00;60.08;101209.22;10604164;27;20581;-77
2022/10/31 13:04:34;;;;;;;2.67;1.55;;;;;;;3.01;60.17;101213.59;10606166;27;20044;-79
2022/10/31 13:09:40;;;;;;;6.33;2.50;;;;;;;3.00;60.38;101230.91;10594475;27;20058;-76
2022/10/31 13:14:47;;;;;;;4.15;2.90;;;;;;;3.05;59.56;101236.50;10597519;28;20478;-84
2022/10/31 13:19:50;;;;;;;5.47;1.88;;;;;;;2.94;60.46;101234.47;10591730;28;20063;-76
2022/10/31 13:24:57;;;;;;;4.88;1.60;;;;;;;2.95;60.70;101223.44;10614675;27;20035;-76
2022/10/31 13:30:06;;;;;;;2.90;1.20;;;;;;;2.98;60.82;101236.53;10596888;28;20060;-77
2022/10/31 13:35:28;;;;;;;3.00;1.23;;;;;;;3.03;60.96;101233.19;10596559;28;20040;-77
2022/10/31 13:40:41;;;;;;;4.18;1.40;;;;;;;3.19;60.48;101232.66;10591589;28;20402;-78
2022/10/31 13:45:53;;;;;;;2.15;1.27;;;;;;;3.09;60.54;101237.72;10585213;28;20078;-84
2022/10/31 13:51:01;;;;;;;5.97;1.42;;;;;;;3.06;60.56;101243.59;10604529;28;20035;-77
2022/10/31 13:56:18;;;;;;;3.33;1.40;;;;;;;3.14;61.00;101246.06;10615045;28;20040;-77
2022/10/31 14:01:21;;;;;;;4.28;1.35;;;;;;;3.58;61.63;101242.41;10603533;28;20040;-79
2022/10/31 14:06:38;;;;;;;2.42;1.50;;;;;;;3.55;60.37;101237.44;10569651;28;20505;-77
2022/10/31 14:11:45;;;;;;;5.72;2.08;;;;;;;3.42;60.19;101242.09;10574290;28;20055;-77
2022/10/31 14:16:54;;;;;;;5.83;2.23;;;;;;;3.29;60.17;101240.31;10585896;28;20048;-78
2022/10/31 14:21:56;;;;;;;3.88;2.13;;;;;;;3.29;60.25;101245.72;10615942;28;20509;-77
2022/10/31 14:27:04;;;;;;;6.10;3.13;;;;;;;3.18;60.74;101241.84;10614846;28;20071;-77
2022/10/31 14:32:26;;;;;;;;;;;;;;;3.25;61.15;101245.34;10591291;28;20044;-77
2022/10/31 14:37:34;;;;;;;7.10;3.65;;;;;;;3.29;60.50;101243.84;10572473;28;19923;-77
2022/10/31 14:42:36;;;;;;;8.63;2.80;;;;;;;3.28;61.23;101242.19;10573358;28;20044;-77
2022/10/31 14:48:15;;;;;;;4.82;2.80;;;;;;;3.36;60.78;101245.72;10571460;28;20060;-78
2022/10/31 14:53:30;;;;;;;13.05;3.95;;;;;;;3.30;60.74;101244.72;10572236;28;20039;-77
2022/10/31 14:58:38;;;;;;;7.53;3.75;;;;;;;3.38;61.81;101232.75;10572007;28;20047;-78
2022/10/31 15:03:43;;;;;;;6.72;3.10;;;;;;;3.49;61.18;101232.91;10579324;28;20039;-78
2022/10/31 15:08:46;;;;;;;6.82;3.28;;;;;;;3.55;60.67;101229.28;10593311;28;20524;-77
2022/10/31 15:13:54;;;;;;;11.40;4.05;;;;;;;3.41;61.16;101227.72;10596768;28;20050;-77
2022/10/31 15:18:59;;;;;;;11.30;5.07;;;;;;;3.35;61.61;101217.75;10614524;27;20039;-78
2022/10/31 15:24:02;;;;;;;10.27;3.60;;;;;;;3.24;61.57;101226.59;10648218;27;20049;-78
2022/10/31 15:29:10;;;;;;;5.97;2.90;;;;;;;3.24;62.18;101234.72;10653522;27;20054;-77
2022/10/31 15:34:15;;;;;;;;;;;;;;;3.07;62.68;101242.53;10596974;28;20054;-77
2022/10/31 15:39:18;;;;;;;5.78;3.25;;;;;;;3.03;62.69;101249.44;10612195;28;19919;-77
2022/10/31 15:44:20;;;;;;;10.30;3.75;;;;;;;2.99;63.82;101256.34;10573206;28;20040;-76
2022/10/31 15:49:37;;;;;;;5.10;3.45;;;;;;;2.92;63.98;101264.50;10606588;28;20537;-79
2022/10/31 15:55:04;;;;;;;10.63;3.25;;;;;;;2.90;63.19;101276.59;10601837;28;20039;-78
2022/10/31 16:00:20;;;;;;;5.57;3.05;;;;;;;2.84;62.92;101266.63;10587224;28;20048;-78
2022/10/31 16:05:23;;;;;;;8.35;2.92;;;;;;;3.29;65.00;101273.69;10611394;28;20044;-78
2022/10/31 16:10:26;;;;;;;8.52;3.65;;;;;;;4.27;62.01;101265.00;10587787;28;20409;-77
2022/10/31 16:15:51;;;;;;;9.23;2.80;;;;;;;4.19;60.00;101268.84;10605998;28;20036;-78
2022/10/31 16:20:55;;;;;;;6.85;2.83;;;;;;;3.91;60.54;101274.72;10609640;28;20044;-77
2022/10/31 16:25:57;;;;;;;7.45;3.22;;;;;;;3.65;60.49;101274.13;10604661;28;20040;-77
2022/10/31 16:30:59;;;;;;;8.32;3.13;;;;;;;3.36;60.93;101261.97;10611308;28;20039;-77
2022/10/31 16:36:30;;;;;;;5.13;2.70;;;;;;;3.14;61.74;101266.91;10605947;28;20129;-79
2022/10/31 16:41:38;;;;;;;6.38;2.90;;;;;;;3.02;61.52;101264.88;10585057;28;20055;-85
2022/10/31 16:46:40;;;;;;;4.63;2.72;;;;;;;2.98;62.04;101260.94;10605838;28;20058;-84
2022/10/31 16:51:42;;;;;;;5.80;2.35;;;;;;;2.96;62.09;101263.03;10603302;28;20528;-82
2022/10/31 16:56:45;;;;;;;4.85;2.25;;;;;;;2.93;61.02;101254.50;10582459;28;20035;-83
2022/10/31 17:01:48;;;;;;;8.32;2.42;;;;;;;2.90;61.10;101242.19;10603965;28;20401;-82
2022/10/31 17:06:50;;;;;;;4.03;2.10;;;;;;;3.14;61.68;101254.19;10590630;28;20036;-82
2022/10/31 17:11:53;;;;;;;4.45;1.88;;;;;;;3.45;60.82;101253.34;10606493;28;20044;-83
2022/10/31 17:16:55;;;;;;;6.38;3.10;;;;;;;3.38;60.76;101251.75;10608169;28;20036;-84
2022/10/31 17:21:57;;;;;;;11.35;3.15;;;;;;;3.27;61.19;101248.66;10594301;28;20047;-85
2022/10/31 17:26:59;;;;;;;4.65;2.30;;;;;;;3.18;62.33;101258.13;10594078;28;20043;-83
2022/10/31 17:32:03;;;;;;;6.03;3.42;;;;;;;3.16;63.28;101260.22;10613668;28;20483;-83
2022/10/31 17:37:05;;;;;;;5.85;3.17;;;;;;;3.14;63.94;101251.47;10615369;28;20051;-83
2022/10/31 17:42:07;;;;;;;9.60;3.30;;;;;;;3.07;64.65;101261.50;10599408;28;20047;-83
2022/10/31 17:47:09;;;;;;;10.68;4.78;;;;;;;3.10;64.96;101255.66;10607678;27;20532;-79
2022/10/31 17:52:11;;;;;;;7.90;3.45;;;;;;;2.97;64.16;101266.59;10598887;27;20051;-83
2022/10/31 17:57:14;;;;;;;9.20;3.22;;;;;;;2.97;63.75;101264.72;10603114;28;20043;-82
2022/10/31 18:02:17;;;;;;;7.68;2.63;;;;;;;2.79;63.32;101278.13;10609601;28;20044;-82
2022/10/31 18:07:20;;;;;;;7.70;3.20;;;;;;;2.86;63.79;101275.38;10617726;27;20055;-79
2022/10/31 18:12:22;;;;;;;8.93;3.75;;;;;;;2.86;64.79;101283.50;10621035;27;20056;-82
2022/10/31 18:17:24;;;;;;;7.65;3.00;;;;;;;2.77;64.93;101276.66;10624117;27;20560;-78
2022/10/31 18:22:26;;;;;;;7.50;3.40;;;;;;;2.71;65.20;101279.19;10599154;28;20070;-76
2022/10/31 18:27:29;;;;;;;7.18;2.95;;;;;;;2.69;64.41;101278.56;10589157;28;20042;-84
2022/10/31 18:32:31;;;;;;;6.07;3.00;;;;;;;2.66;64.76;101270.88;10595541;28;20036;-83
2022/10/31 18:37:33;;;;;;;7.32;3.08;;;;;;;2.69;64.20;101275.84;10615890;28;20065;-86
2022/10/31 18:42:37;;;;;;;7.95;3.35;;;;;;;2.52;64.88;101279.25;10596769;28;20032;-87
2022/10/31 18:47:39;;;;;;;7.28;2.97;;;;;;;3.18;68.63;101271.69;10599013;28;20043;-84
2022/10/31 18:52:42;;;;;;;4.53;2.92;;;;;;;3.52;66.20;101280.47;10611257;28;20028;-77
2022/10/31 18:57:45;;;;;;;4.38;2.72;;;;;;;3.64;63.91;101281.41;10604516;28;20417;-75
2022/10/31 19:02:48;;;;;;;8.10;3.42;;;;;;;3.71;64.08;101273.22;10586377;27;20048;-74
2022/10/31 19:07:51;;;;;;;8.93;3.08;;;;;;;3.70;62.79;101280.53;10606745;28;20051;-81
2022/10/31 19:12:57;;;;;;;7.80;3.50;;;;;;;3.57;63.47;101276.03;10614719;28;20039;-80
2022/10/31 19:17:59;;;;;;;7.85;3.35;;;;;;;3.60;63.29;101278.28;10608077;28;20043;-74
2022/10/31 19:23:06;;;;;;;6.88;3.13;;;;;;;3.60;63.66;101283.72;10602026;28;20040;-73
2022/10/31 19:28:09;;;;;;;10.85;3.70;;;;;;;3.60;65.18;101272.03;10604453;28;20078;-75
2022/10/31 19:33:11;;;;;;;4.55;3.22;;;;;;;3.62;64.99;101283.50;10607146;28;20512;-74
2022/10/31 19:38:17;;;;;;;8.98;3.55;;;;;;;3.53;63.88;101282.13;10605968;28;20032;-74
2022/10/31 19:43:20;;;;;;;5.75;2.85;;;;;;;3.07;64.53;101288.63;10590759;28;20054;-82
2022/10/31 19:48:23;;;;;;;9.50;3.88;;;;;;;2.78;64.63;101276.47;10576953;28;20044;-81
2022/10/31 19:53:30;;;;;;;8.60;3.47;;;;;;;2.62;65.13;101291.31;10582001;27;20043;-82
2022/10/31 19:58:36;;;;;;;7.13;2.92;;;;;;;2.55;65.35;101279.66;10603837;28;20058;-82
2022/10/31 20:03:40;;;;;;;7.28;2.92;;;;;;;2.49;65.94;101275.09;10584728;28;20032;-82
2022/10/31 20:08:43;;;;;;;8.88;3.53;;;;;;;2.45;66.47;101273.84;10608314;27;20052;-79
2022/10/31 20:13:46;;;;;;;5.85;2.67;;;;;;;2.38;66.19;101264.91;10595779;27;20040;-78
2022/10/31 20:18:48;;;;;;;4.85;2.50;;;;;;;2.40;66.47;101260.94;10587979;27;20524;-84
2022/10/31 20:24:01;;;;;;;9.32;4.13;;;;;;;2.66;66.28;101265.44;10579443;28;20046;-79
2022/10/31 20:29:03;;;;;;;8.40;3.10;;;;;;;2.99;65.95;101261.78;10599849;28;20533;-79
2022/10/31 20:34:05;;;;;;;7.45;3.03;;;;;;;3.21;65.18;101254.16;10616591;28;20039;-79
2022/10/31 20:39:09;;;;;;;3.20;1.98;;;;;;;3.20;64.91;101250.59;10590871;28;20042;-78
2022/10/31 20:44:11;;;;;;;3.72;2.22;;;;;;;3.00;65.13;101252.59;10609999;28;20050;-79
2022/10/31 20:49:13;;;;;;;5.15;2.40;;;;;;;2.87;66.17;101244.53;10607972;28;20046;-79
2022/10/31 20:54:17;;;;;;;4.72;2.60;;;;;;;2.82;67.17;101249.75;10596106;28;20040;-79
2022/10/31 20:59:20;;;;;;;5.28;2.28;;;;;;;2.82;66.84;101239.75;10608116;28;20040;-78
2022/10/31 21:04:22;;;;;;;7.72;1.95;;;;;;;2.72;66.67;101233.94;10616434;28;20042;-81
2022/10/31 21:09:25;;;;;;;5.93;2.17;;;;;;;2.76;66.24;101221.63;10628247;28;20046;-81
2022/10/31 21:14:28;;;;;;;5.75;2.45;;;;;;;2.77;65.88;101220.56;10614688;28;20078;-81
2022/10/31 21:19:35;;;;;;;3.47;2.03;;;;;;;2.80;66.38;101220.16;10622855;28;20047;-81
2022/10/31 21:24:38;;;;;;;4.15;2.10;;;;;;;2.90;66.62;101206.13;10622786;28;20065;-77
2022/10/31 21:29:40;;;;;;;4.15;2.20;;;;;;;2.99;66.22;101221.94;10624371;28;20039;-81
2022/10/31 21:34:49;;;;;;;7.40;3.10;;;;;;;3.08;66.04;101208.94;10610568;28;20058;-79
2022/10/31 21:39:51;;;;;;;6.45;2.83;;;;;;;3.13;66.39;101211.03;10605734;28;20044;-79
2022/10/31 21:44:54;;;;;;;5.82;2.70;;;;;;;3.27;65.64;101205.28;10621852;28;20444;-80
2022/10/31 21:49:56;;;;;;;5.95;2.95;;;;;;;3.40;66.09;101211.66;10617941;28;20062;-80
2022/10/31 21:54:59;;;;;;;6.55;2.97;;;;;;;3.45;65.78;101209.13;10614208;28;20034;-80
2022/10/31 22:00:05;;;;;;;6.13;2.65;;;;;;;3.55;66.13;101214.88;10611521;28;20181;-74
2022/10/31 22:05:07;;;;;;;10.77;2.47;;;;;;;3.43;65.64;101213.94;10604496;28;20051;-76
2022/10/31 22:10:10;;;;;;;5.93;3.30;;;;;;;3.31;65.73;101209.22;10617000;28;20039;-76
2022/10/31 22:15:41;;;;;;;7.75;3.00;;;;;;;3.35;65.90;101200.66;10617089;28;20047;-86
2022/10/31 22:20:47;;;;;;;8.07;3.65;;;;;;;3.20;66.00;101196.38;10612948;27;20079;-75
2022/10/31 22:25:50;;;;;;;5.55;3.30;;;;;;;3.18;66.90;101182.19;10616180;28;20564;-78
2022/10/31 22:30:56;;;;;;;7.50;3.28;;;;;;;3.24;66.82;101178.59;10614582;27;20040;-78
2022/10/31 22:36:02;;;;;;;4.93;3.03;;;;;;;3.24;66.34;101177.75;10631192;27;20048;-77
2022/10/31 22:41:10;;;;;;;8.63;3.45;;;;;;;3.30;67.65;101166.06;10602605;28;20028;-76
2022/10/31 22:46:18;;;;;;;6.78;3.05;;;;;;;3.41;68.26;101164.50;10613649;28;20046;-86
2022/10/31 22:51:31;;;;;;;;;;;;;;;3.50;69.92;101147.72;10586797;28;20050;-83
2022/10/31 22:56:37;;;;;;;7.50;2.78;;;;;;;3.59;71.00;101150.97;10614159;27;19920;-76
2022/10/31 23:01:39;;;;;;;5.43;2.30;;;;;;;3.56;71.83;101152.25;10599291;28;20035;-75
2022/10/31 23:06:42;;;;;;;5.13;2.00;;;;;;;3.60;72.18;101147.22;10592521;28;20512;-75
2022/10/31 23:11:44;;;;;;;3.75;1.80;;;;;;;3.70;72.19;101146.72;10584468;28;20379;-84
2022/10/31 23:16:49;;;;;;;3.60;1.85;;;;;;;3.72;72.48;101140.00;10589191;28;20043;-83
2022/10/31 23:22:00;;;;;;;5.30;2.10;;;;;;;3.64;73.41;101143.00;10567845;28;20048;-77
2022/10/31 23:27:21;;;;;;;4.57;1.80;;;;;;;3.66;74.30;101138.19;10607923;28;20051;-77
2022/10/31 23:32:27;;;;;;;4.70;2.00;;;;;;;3.62;75.45;101139.69;10597184;28;20515;-76
2022/10/31 23:37:31;;;;;;;3.50;1.80;;;;;;;3.54;75.92;101140.81;10632645;27;20043;-76
2022/10/31 23:42:34;;;;;;;4.35;2.13;;;;;;;3.38;76.73;101137.81;10578974;28;20044;-87
2022/10/31 23:47:36;;;;;;;4.38;2.30;;;;;;;3.23;77.37;101135.44;10596559;28;20418;-84
2022/10/31 23:52:38;;;;;;;2.30;1.60;;;;;;;3.22;78.37;101129.16;10600234;27;20039;-82
2022/10/31 23:57:41;;;;;;;3.63;2.15;;;;;;;3.22;79.25;101121.03;10602486;27;20044;-75
